Terminal Aerodrome Forecast
Issued by NWS Shreveport, LA

Home | Current Version | Previous Version | Text Only | Print | Product List | Glossary On
Versions: 1 2 3 4 5 6 7 8 9 10 11 12 13 14 15 16 17 18 19
000
FTUS44 KSHV 290813 CCA
TAFGGG
TAF COR
KGGG 290813Z 2908/3006 17005KT P6SM BKN028
      TEMPO 2912/2914 VRB10G20KT 3SM -TSRA BKN010 OVC030CB
     FM291400 VRB06KT 4SM -TSRA BR OVC012CB
     FM291600 19010KT P6SM SCT050 BKN120
     FM291900 19012KT P6SM VCTS BKN040CB OVC100
     FM300000 18005KT P6SM SCT050 OVC250=

USA.gov is the U.S. government's official web portal to all federal, state and local government web resources and services.